Time;durP1;ratioP1;P1;durP2;ratioP2;P2;SDS_P1;SDS_P2;PMS_P1;PMS_P2;Temp;Humidity;BMP_temperature;BMP_pressure;BME280_temperature;BME280_humidity;BME280_pressure;Samples;Min_cycle;Max_cycle;Signal;HPM_P1;HPM_P2
2022/03/05 00:02:13;;;;;;;18.88;12.48;;;2.40;69.20;;;;;;4920935;29;20292;-86
2022/03/05 00:04:45;;;;;;;17.17;12.65;;;2.40;69.10;;;;;;4912886;29;20202;-87
2022/03/05 00:07:22;;;;;;;17.88;11.20;;;2.40;69.20;;;;;;4908492;29;20204;-87
2022/03/05 00:09:56;;;;;;;18.30;12.70;;;2.30;68.80;;;;;;4912597;29;20214;-87
2022/03/05 00:12:24;;;;;;;23.75;14.20;;;2.10;68.70;;;;;;4906086;29;20218;-87
2022/03/05 00:14:57;;;;;;;16.63;12.60;;;2.00;69.70;;;;;;4910923;29;20196;-86
2022/03/05 00:17:26;;;;;;;15.80;11.98;;;2.00;70.30;;;;;;4912841;29;20203;-86
2022/03/05 00:19:53;;;;;;;18.52;12.32;;;2.00;70.50;;;;;;4920896;29;20230;-86
2022/03/05 00:22:23;;;;;;;19.23;12.45;;;1.90;70.90;;;;;;4919676;29;20292;-86
2022/03/05 00:24:54;;;;;;;24.88;11.65;;;2.00;71.20;;;;;;4908387;29;20210;-88
2022/03/05 00:27:21;;;;;;;19.88;13.15;;;1.90;72.00;;;;;;4905906;29;20226;-88
2022/03/05 00:29:52;;;;;;;16.67;13.10;;;2.00;71.40;;;;;;4914163;29;20210;-87
2022/03/05 00:32:19;;;;;;;21.75;13.35;;;2.00;71.50;;;;;;4916523;29;20227;-88
2022/03/05 00:34:47;;;;;;;19.75;11.98;;;2.00;71.70;;;;;;4950442;23;20241;-87
2022/03/05 00:37:13;;;;;;;15.90;12.65;;;1.90;71.50;;;;;;4942272;29;20248;-86
2022/03/05 00:39:42;;;;;;;17.52;13.00;;;1.90;72.00;;;;;;4932601;29;20696;-87
2022/03/05 00:42:11;;;;;;;14.07;11.00;;;1.70;71.70;;;;;;4943005;29;20205;-87
2022/03/05 00:44:38;;;;;;;17.58;12.75;;;1.70;72.60;;;;;;4942282;29;20607;-88
2022/03/05 00:47:05;;;;;;;18.77;12.45;;;1.60;73.20;;;;;;4943041;29;20687;-87
2022/03/05 00:49:32;;;;;;;19.33;12.13;;;1.60;73.70;;;;;;4942998;29;20202;-88
2022/03/05 00:51:58;;;;;;;19.25;12.57;;;1.60;74.00;;;;;;4924934;29;20684;-87
2022/03/05 00:54:26;;;;;;;25.15;14.00;;;1.60;74.40;;;;;;4932822;29;20225;-87
2022/03/05 00:56:53;;;;;;;20.23;12.73;;;1.60;74.90;;;;;;4944912;29;20207;-87
2022/03/05 00:59:22;;;;;;;20.23;13.13;;;1.50;74.80;;;;;;4945243;29;20229;-87
2022/03/05 01:01:48;;;;;;;20.02;12.18;;;1.50;75.10;;;;;;4946226;29;20206;-88
2022/03/05 01:04:15;;;;;;;20.75;13.45;;;1.60;75.40;;;;;;4942662;29;20219;-86
2022/03/05 01:06:42;;;;;;;16.02;12.55;;;1.50;75.40;;;;;;4928977;29;20625;-87
2022/03/05 01:09:09;;;;;;;19.33;12.70;;;1.50;75.10;;;;;;4939861;29;20256;-87
2022/03/05 01:11:37;;;;;;;17.40;12.43;;;1.50;74.90;;;;;;4940130;29;20265;-88
2022/03/05 01:14:04;;;;;;;19.38;12.52;;;1.40;75.10;;;;;;4928358;29;20222;-87
2022/03/05 01:16:34;;;;;;;16.02;11.63;;;1.30;75.30;;;;;;4943243;28;20188;-88
2022/03/05 01:19:01;;;;;;;17.52;12.40;;;1.20;75.00;;;;;;4937854;29;20225;-86
2022/03/05 01:21:28;;;;;;;18.33;12.85;;;1.20;75.40;;;;;;4948124;29;20265;-86
2022/03/05 01:23:55;;;;;;;16.60;12.20;;;1.10;76.00;;;;;;4950815;29;20226;-88
2022/03/05 01:26:23;;;;;;;25.77;13.88;;;1.10;76.70;;;;;;4931094;29;20225;-86
2022/03/05 01:28:49;;;;;;;19.50;12.60;;;1.10;77.20;;;;;;4929562;29;20270;-86
2022/03/05 01:31:16;;;;;;;24.73;14.93;;;1.10;77.70;;;;;;4934218;29;20207;-86
2022/03/05 01:33:44;;;;;;;18.15;13.45;;;1.00;78.60;;;;;;4938775;29;20266;-86
2022/03/05 01:36:11;;;;;;;19.05;13.55;;;1.00;79.70;;;;;;4920091;29;20210;-86
2022/03/05 01:38:38;;;;;;;19.10;12.93;;;1.00;79.60;;;;;;4919437;29;20207;-87
2022/03/05 01:41:05;;;;;;;20.17;13.00;;;1.00;80.10;;;;;;4919735;29;20219;-88
2022/03/05 01:43:32;;;;;;;18.65;14.00;;;1.00;80.60;;;;;;4943968;29;20210;-87
2022/03/05 01:45:58;;;;;;;16.73;12.98;;;1.00;80.70;;;;;;4940557;29;20187;-89
2022/03/05 01:48:25;;;;;;;18.05;13.40;;;0.90;80.80;;;;;;4942667;29;20206;-88
2022/03/05 01:50:53;;;;;;;20.38;12.82;;;0.90;80.60;;;;;;4952176;29;20209;-87
2022/03/05 01:53:20;;;;;;;17.25;13.38;;;0.90;80.80;;;;;;4940642;29;20234;-87
2022/03/05 01:55:47;;;;;;;24.40;14.30;;;0.90;80.90;;;;;;4934548;29;20254;-87
2022/03/05 01:58:14;;;;;;;17.85;11.93;;;0.90;80.90;;;;;;4956327;29;20198;-87
2022/03/05 02:00:41;;;;;;;18.95;12.57;;;1.00;80.90;;;;;;4949028;29;20227;-87
2022/03/05 02:03:08;;;;;;;18.85;13.10;;;0.90;80.80;;;;;;4936000;29;20221;-86
2022/03/05 02:05:35;;;;;;;19.48;12.35;;;1.00;81.10;;;;;;4935325;29;20258;-86
2022/03/05 02:08:05;;;;;;;19.08;12.75;;;1.00;81.20;;;;;;4942976;29;20756;-86
2022/03/05 02:10:32;;;;;;;17.23;11.90;;;1.00;81.10;;;;;;4953621;29;20253;-87
2022/03/05 02:12:59;;;;;;;17.33;13.10;;;1.00;80.80;;;;;;4952052;29;20214;-87
2022/03/05 02:15:26;;;;;;;18.58;12.10;;;0.90;80.30;;;;;;4935858;29;20226;-87
2022/03/05 02:17:53;;;;;;;15.50;10.85;;;0.80;79.30;;;;;;4949110;29;20210;-86
2022/03/05 02:20:20;;;;;;;15.70;10.90;;;0.70;78.80;;;;;;4937901;29;20245;-86
2022/03/05 02:22:48;;;;;;;16.80;12.57;;;0.70;78.90;;;;;;4924566;29;20213;-87
2022/03/05 02:25:14;;;;;;;16.52;11.45;;;0.70;79.20;;;;;;4928107;29;20237;-86
2022/03/05 02:27:44;;;;;;;21.17;12.43;;;0.70;79.00;;;;;;4943546;29;20195;-87
2022/03/05 02:30:11;;;;;;;14.10;11.40;;;0.60;79.20;;;;;;4943797;29;20198;-88
2022/03/05 02:32:38;;;;;;;20.35;12.35;;;0.50;80.00;;;;;;4943594;29;20191;-89
2022/03/05 02:35:05;;;;;;;16.00;11.40;;;0.50;80.90;;;;;;4939298;29;20262;-88
2022/03/05 02:37:32;;;;;;;17.75;13.13;;;0.50;81.00;;;;;;4937561;29;20238;-87
2022/03/05 02:40:00;;;;;;;16.13;12.80;;;0.50;81.60;;;;;;4936854;29;20218;-86
2022/03/05 02:42:27;;;;;;;17.80;12.90;;;0.50;82.20;;;;;;4935917;29;20297;-86
2022/03/05 02:44:54;;;;;;;17.25;12.18;;;0.50;82.60;;;;;;4950098;29;20226;-87
2022/03/05 02:47:21;;;;;;;16.45;13.00;;;0.50;82.40;;;;;;4950937;29;20296;-88
2022/03/05 02:49:47;;;;;;;15.95;11.30;;;0.60;82.80;;;;;;4940586;29;20194;-87
2022/03/05 02:52:14;;;;;;;14.25;12.18;;;0.50;83.00;;;;;;4954206;29;20301;-87
2022/03/05 02:54:41;;;;;;;17.48;12.82;;;0.50;83.00;;;;;;4953569;29;20321;-86
2022/03/05 02:57:09;;;;;;;21.55;12.07;;;0.40;83.60;;;;;;4951520;29;20210;-86
2022/03/05 02:59:36;;;;;;;17.35;12.57;;;0.40;84.30;;;;;;4919905;29;20296;-86
2022/03/05 03:02:03;;;;;;;16.58;11.80;;;0.40;84.60;;;;;;4950861;28;20215;-88
2022/03/05 03:04:31;;;;;;;18.80;12.98;;;0.40;84.40;;;;;;4934288;29;20219;-87
2022/03/05 03:06:58;;;;;;;15.48;12.57;;;0.40;85.10;;;;;;4948229;29;20274;-86
2022/03/05 03:09:24;;;;;;;21.75;12.18;;;0.40;85.50;;;;;;4935090;29;20207;-87
2022/03/05 03:11:51;;;;;;;20.63;12.38;;;0.40;85.80;;;;;;4946430;29;20206;-87
2022/03/05 03:14:19;;;;;;;15.40;10.38;;;0.40;85.70;;;;;;4921611;29;20318;-87
2022/03/05 03:16:46;;;;;;;20.05;13.13;;;0.50;85.10;;;;;;4929674;29;20646;-87
2022/03/05 03:19:13;;;;;;;21.02;13.15;;;0.40;84.90;;;;;;4939197;29;20206;-86
2022/03/05 03:21:40;;;;;;;18.27;12.02;;;0.50;84.80;;;;;;4925432;29;20206;-87
2022/03/05 03:24:07;;;;;;;17.70;12.95;;;0.40;84.90;;;;;;4930669;29;20222;-87
2022/03/05 03:26:33;;;;;;;23.92;11.70;;;0.30;85.30;;;;;;4923145;29;20213;-87
2022/03/05 03:29:00;;;;;;;14.55;11.05;;;0.30;85.90;;;;;;4923326;29;20199;-87
2022/03/05 03:31:28;;;;;;;16.88;11.90;;;0.20;86.20;;;;;;4927536;29;20217;-87
2022/03/05 03:33:55;;;;;;;16.52;11.85;;;0.20;86.40;;;;;;4940259;29;20207;-87
2022/03/05 03:36:22;;;;;;;21.02;13.25;;;0.20;86.90;;;;;;4942837;29;20214;-89
2022/03/05 03:38:48;;;;;;;17.45;11.88;;;0.20;87.60;;;;;;4933120;29;20199;-87
2022/03/05 03:41:15;;;;;;;18.80;14.20;;;0.10;88.10;;;;;;4924454;29;20227;-86
2022/03/05 03:43:42;;;;;;;17.17;12.23;;;0.10;88.50;;;;;;4920624;29;20293;-86
2022/03/05 03:46:09;;;;;;;18.33;12.40;;;0.10;88.60;;;;;;4928461;29;20213;-87
2022/03/05 03:48:37;;;;;;;18.33;12.38;;;0.10;88.90;;;;;;4940403;29;20202;-86
2022/03/05 03:51:04;;;;;;;21.92;13.02;;;0.20;88.50;;;;;;4948787;29;20691;-86
2022/03/05 03:53:31;;;;;;;17.20;11.80;;;0.10;88.00;;;;;;4951782;29;20202;-86
2022/03/05 03:55:59;;;;;;;16.70;11.50;;;0.00;88.20;;;;;;4950721;29;20209;-87
2022/03/05 03:58:26;;;;;;;18.20;12.68;;;-0.10;88.90;;;;;;4949384;29;20216;-86
2022/03/05 04:00:53;;;;;;;21.23;12.80;;;-0.10;90.10;;;;;;4952963;29;20237;-86
2022/03/05 04:03:20;;;;;;;16.42;10.93;;;-0.10;90.40;;;;;;4954649;29;20297;-87
2022/03/05 04:05:48;;;;;;;18.65;11.95;;;-0.20;90.50;;;;;;4945482;29;20229;-86
2022/03/05 04:10:59;;;;;;;16.40;12.52;;;-0.20;91.10;;;;;;4945774;29;20197;-86
2022/03/05 04:13:26;;;;;;;18.48;12.10;;;-0.10;91.50;;;;;;4924482;29;20206;-87
2022/03/05 04:15:53;;;;;;;19.83;13.85;;;-0.10;91.20;;;;;;4924177;29;20223;-87
2022/03/05 04:18:20;;;;;;;18.40;11.52;;;0.00;91.60;;;;;;4943201;29;20614;-87
2022/03/05 04:20:48;;;;;;;15.95;12.50;;;0.00;91.50;;;;;;4926137;29;20223;-86
2022/03/05 04:23:15;;;;;;;18.38;12.73;;;0.00;91.50;;;;;;4924184;29;20565;-87
2022/03/05 04:25:42;;;;;;;13.73;11.95;;;0.00;91.40;;;;;;4940161;29;20324;-87
2022/03/05 04:28:08;;;;;;;18.50;12.45;;;0.00;91.60;;;;;;4941876;29;20206;-87
2022/03/05 04:30:36;;;;;;;17.55;11.27;;;0.00;91.60;;;;;;4943357;29;20210;-87
2022/03/05 04:33:02;;;;;;;19.75;13.15;;;-0.10;91.40;;;;;;4940836;29;20209;-87
2022/03/05 04:35:30;;;;;;;19.00;13.18;;;-0.10;91.30;;;;;;4928942;29;20325;-86
2022/03/05 04:37:58;;;;;;;17.38;11.05;;;-0.20;91.70;;;;;;4942171;29;20213;-87
2022/03/05 04:40:25;;;;;;;21.85;14.38;;;-0.10;92.10;;;;;;4925144;29;20710;-87
2022/03/05 04:42:52;;;;;;;17.17;11.48;;;-0.10;92.40;;;;;;4924445;29;20203;-87
2022/03/05 04:45:19;;;;;;;19.23;13.20;;;-0.10;92.20;;;;;;4929750;29;20231;-87
2022/03/05 04:47:46;;;;;;;18.85;13.73;;;-0.10;92.10;;;;;;4953559;29;20202;-87
2022/03/05 04:50:13;;;;;;;19.52;13.05;;;-0.10;92.10;;;;;;4943370;29;20207;-86
2022/03/05 04:52:40;;;;;;;15.93;12.52;;;-0.10;91.90;;;;;;4932817;29;20288;-87
2022/03/05 04:55:09;;;;;;;21.65;13.88;;;-0.10;91.90;;;;;;4956186;29;20218;-87
2022/03/05 04:57:36;;;;;;;18.08;13.20;;;-0.10;92.40;;;;;;4949406;29;20209;-87
2022/03/05 05:00:05;;;;;;;15.43;11.35;;;-0.20;92.00;;;;;;4946249;29;20226;-86
2022/03/05 05:02:32;;;;;;;19.55;13.68;;;-0.20;92.40;;;;;;4941025;29;20205;-87
2022/03/05 05:04:58;;;;;;;17.45;11.65;;;-0.10;92.60;;;;;;4950762;29;20240;-87
2022/03/05 05:07:25;;;;;;;20.20;13.82;;;-0.10;92.40;;;;;;4943277;29;20228;-87
2022/03/05 05:09:53;;;;;;;19.15;12.05;;;-0.20;92.30;;;;;;4914730;29;20629;-87
2022/03/05 05:12:22;;;;;;;18.90;13.40;;;-0.20;92.40;;;;;;4932372;29;20206;-85
2022/03/05 05:14:49;;;;;;;16.42;12.60;;;-0.30;92.70;;;;;;4946248;29;20313;-86
2022/03/05 05:17:16;;;;;;;17.60;12.55;;;-0.30;92.90;;;;;;4933512;29;20198;-86
2022/03/05 05:19:43;;;;;;;18.90;12.85;;;-0.30;92.90;;;;;;4934459;29;20274;-88
2022/03/05 05:22:11;;;;;;;20.60;13.00;;;-0.40;93.20;;;;;;4935947;29;20270;-87
2022/03/05 05:24:39;;;;;;;15.98;13.18;;;-0.50;93.10;;;;;;4934530;29;20263;-88
2022/03/05 05:27:06;;;;;;;22.25;13.32;;;-0.50;93.50;;;;;;4950580;29;20226;-87
2022/03/05 05:29:34;;;;;;;20.98;13.10;;;-0.50;93.80;;;;;;4952234;29;20234;-87
2022/03/05 05:32:05;;;;;;;20.02;13.43;;;-0.50;93.70;;;;;;4934031;29;20186;-87
2022/03/05 05:34:32;;;;;;;17.73;12.80;;;-0.40;93.80;;;;;;4933116;29;20261;-87
2022/03/05 05:36:59;;;;;;;23.73;12.68;;;-0.40;93.50;;;;;;4931226;29;20213;-86
2022/03/05 05:39:25;;;;;;;16.23;12.13;;;-0.40;93.40;;;;;;4943997;29;20232;-87
2022/03/05 05:41:52;;;;;;;17.30;12.60;;;-0.40;93.30;;;;;;4939346;29;20233;-87
2022/03/05 05:44:19;;;;;;;20.42;13.60;;;-0.40;93.10;;;;;;4921458;29;20598;-86
2022/03/05 05:46:47;;;;;;;15.65;11.48;;;-0.30;93.10;;;;;;4933080;29;20205;-86
2022/03/05 05:49:14;;;;;;;19.02;12.50;;;-0.40;93.30;;;;;;4932783;29;20209;-86
2022/03/05 05:51:41;;;;;;;19.65;12.80;;;-0.50;93.50;;;;;;4923934;29;20211;-87
2022/03/05 05:54:09;;;;;;;18.00;12.45;;;-0.50;93.80;;;;;;4953557;29;20248;-86
2022/03/05 05:56:36;;;;;;;18.33;11.90;;;-0.50;94.00;;;;;;4946795;29;20209;-88
2022/03/05 05:59:04;;;;;;;19.48;12.38;;;-0.60;94.10;;;;;;4934512;29;20210;-87
2022/03/05 06:01:31;;;;;;;18.83;12.27;;;-0.50;94.30;;;;;;4929534;29;20246;-87
2022/03/05 06:03:59;;;;;;;17.80;12.55;;;-0.50;94.40;;;;;;4934970;29;20222;-87
2022/03/05 06:06:26;;;;;;;16.75;12.30;;;-0.40;94.50;;;;;;4933773;29;20206;-87
2022/03/05 06:08:53;;;;;;;21.23;13.93;;;-0.50;94.20;;;;;;4939221;29;20646;-87
2022/03/05 06:11:19;;;;;;;15.75;12.00;;;-0.60;94.30;;;;;;4944705;29;20576;-87
2022/03/05 06:13:46;;;;;;;18.23;12.60;;;-0.60;94.50;;;;;;4952561;29;20213;-87
2022/03/05 06:16:13;;;;;;;19.58;13.25;;;-0.40;94.20;;;;;;4956168;29;20210;-87
2022/03/05 06:18:40;;;;;;;17.95;13.70;;;-0.40;93.80;;;;;;4936887;29;20254;-86
2022/03/05 06:21:09;;;;;;;18.40;12.40;;;-0.40;93.60;;;;;;4941251;29;20221;-87
2022/03/05 06:23:36;;;;;;;19.27;12.95;;;-0.40;93.80;;;;;;4950875;29;20274;-86
2022/03/05 06:26:03;;;;;;;21.25;13.23;;;-0.40;93.90;;;;;;4941469;29;20203;-87
2022/03/05 06:28:30;;;;;;;19.00;13.35;;;-0.50;94.10;;;;;;4935335;29;20336;-86
2022/03/05 06:30:57;;;;;;;19.40;13.93;;;-0.40;94.30;;;;;;4928556;29;20266;-86
2022/03/05 06:33:24;;;;;;;15.98;12.43;;;-0.40;94.10;;;;;;4926757;29;20202;-87
2022/03/05 06:35:51;;;;;;;18.13;13.77;;;-0.30;93.90;;;;;;4955430;23;20231;-87
2022/03/05 06:38:22;;;;;;;23.20;14.13;;;-0.30;93.80;;;;;;4930177;29;20221;-88
2022/03/05 06:40:49;;;;;;;17.90;11.60;;;-0.20;93.40;;;;;;4919515;29;20254;-89
2022/03/05 06:43:16;;;;;;;18.05;12.80;;;-0.10;93.10;;;;;;4918794;29;20214;-88
2022/03/05 06:45:43;;;;;;;16.25;13.55;;;0.00;93.10;;;;;;4922727;29;20220;-88
2022/03/05 06:48:10;;;;;;;19.40;13.88;;;0.00;92.50;;;;;;4923850;29;20200;-86
2022/03/05 06:50:38;;;;;;;18.25;12.80;;;0.10;92.30;;;;;;4924023;29;20195;-89
2022/03/05 06:53:05;;;;;;;17.67;12.70;;;0.10;92.20;;;;;;4919418;29;20248;-88
2022/03/05 06:55:34;;;;;;;17.95;12.57;;;0.10;92.00;;;;;;4923854;29;20227;-89
2022/03/05 06:58:01;;;;;;;18.85;13.68;;;0.20;91.90;;;;;;4915065;29;20203;-89
2022/03/05 07:00:28;;;;;;;19.58;14.13;;;0.20;91.80;;;;;;4910457;29;20226;-88
2022/03/05 07:02:55;;;;;;;21.33;13.50;;;0.20;91.80;;;;;;4912039;29;20212;-88
2022/03/05 07:05:32;;;;;;;18.23;12.50;;;0.30;91.70;;;;;;4923151;29;20207;-89
2022/03/05 07:07:59;;;;;;;20.02;13.75;;;0.30;91.70;;;;;;4923721;29;20191;-88
2022/03/05 07:10:26;;;;;;;20.60;13.05;;;0.30;91.40;;;;;;4922615;29;20247;-90
2022/03/05 07:12:55;;;;;;;21.08;13.65;;;0.40;91.20;;;;;;4940497;29;20243;-91
2022/03/05 07:15:22;;;;;;;18.30;13.30;;;0.50;90.90;;;;;;4934011;29;20266;-88
2022/03/05 07:17:50;;;;;;;16.27;12.20;;;0.60;90.80;;;;;;4912214;29;20218;-89
2022/03/05 07:20:17;;;;;;;17.05;12.05;;;0.60;90.60;;;;;;4907973;29;20217;-87
2022/03/05 07:22:45;;;;;;;22.90;14.40;;;0.70;90.50;;;;;;4908654;29;20206;-87
2022/03/05 07:25:12;;;;;;;20.50;13.73;;;0.70;90.30;;;;;;4919365;29;20211;-88
2022/03/05 07:27:39;;;;;;;17.63;14.02;;;0.80;90.20;;;;;;4910470;29;20200;-88
2022/03/05 07:30:09;;;;;;;23.08;13.95;;;0.90;90.00;;;;;;4910277;29;20234;-88
2022/03/05 07:32:37;;;;;;;17.55;13.23;;;1.00;90.00;;;;;;4927585;29;20262;-88
2022/03/05 07:35:04;;;;;;;21.10;12.90;;;1.00;89.40;;;;;;4934357;29;20206;-88
2022/03/05 07:37:32;;;;;;;18.75;12.82;;;1.10;89.20;;;;;;4930541;29;20289;-90
2022/03/05 07:39:59;;;;;;;19.65;14.13;;;1.20;88.90;;;;;;4938265;29;20219;-89
2022/03/05 07:42:26;;;;;;;16.33;13.55;;;1.30;89.40;;;;;;4931551;29;20318;-88
2022/03/05 07:44:54;;;;;;;18.27;13.05;;;1.40;88.20;;;;;;4931364;29;20245;-89
2022/03/05 07:47:22;;;;;;;21.80;13.70;;;1.40;87.80;;;;;;4930669;29;20238;-88
2022/03/05 07:49:50;;;;;;;23.77;14.93;;;1.50;87.10;;;;;;4923898;29;20212;-88
2022/03/05 07:52:17;;;;;;;20.67;14.05;;;1.70;87.30;;;;;;4910830;29;20207;-88
2022/03/05 07:54:44;;;;;;;22.80;13.60;;;1.70;86.30;;;;;;4914263;29;20536;-89
2022/03/05 07:57:11;;;;;;;18.98;14.35;;;1.80;86.10;;;;;;4912331;29;20235;-88
2022/03/05 07:59:38;;;;;;;28.10;15.20;;;1.90;85.70;;;;;;4923607;29;20214;-89
2022/03/05 08:02:06;;;;;;;24.35;16.67;;;2.10;85.40;;;;;;4922163;29;20235;-87
2022/03/05 08:04:35;;;;;;;25.50;17.17;;;2.20;84.40;;;;;;4922798;29;20210;-89
2022/03/05 08:07:03;;;;;;;24.02;16.85;;;2.10;83.90;;;;;;4928284;29;20230;-88
2022/03/05 08:09:30;;;;;;;20.17;13.32;;;2.30;83.70;;;;;;4911840;29;20227;-89
2022/03/05 08:11:57;;;;;;;22.10;15.25;;;2.70;84.20;;;;;;4917629;29;20254;-89
2022/03/05 08:14:26;;;;;;;23.77;15.77;;;3.30;84.10;;;;;;4918935;29;20242;-88
2022/03/05 08:16:58;;;;;;;20.77;15.38;;;4.30;81.70;;;;;;4909619;29;20228;-89
2022/03/05 08:19:26;;;;;;;21.25;16.90;;;4.80;76.60;;;;;;4911890;29;20219;-89
2022/03/05 08:21:57;;;;;;;22.40;15.37;;;5.30;74.00;;;;;;4912726;29;20217;-90
2022/03/05 08:24:32;;;;;;;19.80;15.43;;;5.70;71.60;;;;;;4912927;29;20482;-88
2022/03/05 08:26:59;;;;;;;20.70;16.07;;;6.10;69.40;;;;;;4910202;29;20465;-88
2022/03/05 08:29:27;;;;;;;20.47;16.50;;;7.00;68.70;;;;;;4909955;29;20459;-89
2022/03/05 08:32:02;;;;;;;22.10;15.80;;;7.70;64.00;;;;;;4911574;29;21154;-88
2022/03/05 08:34:37;;;;;;;25.83;18.00;;;8.60;61.50;;;;;;4932196;29;20446;-87
2022/03/05 08:41:34;;;;;;;21.97;17.93;;;10.10;55.60;;;;;;4892992;29;20497;-83
2022/03/05 08:44:13;;;;;;;19.83;16.87;;;9.60;54.20;;;;;;4846293;29;20432;-85
2022/03/05 08:47:15;;;;;;;23.43;16.30;;;8.90;55.30;;;;;;4840521;29;20516;-89
2022/03/05 08:49:53;;;;;;;18.60;16.20;;;9.10;56.40;;;;;;4898873;29;20470;-89
2022/03/05 08:52:36;;;;;;;20.07;16.37;;;9.10;55.90;;;;;;4919951;29;20447;-90
2022/03/05 08:55:16;;;;;;;19.33;16.93;;;9.80;55.10;;;;;;4906644;29;20486;-91
2022/03/05 08:57:44;;;;;;;25.70;18.50;;;10.30;53.30;;;;;;4906168;29;20926;-88
2022/03/05 09:00:15;;;;;;;19.07;16.57;;;10.60;52.00;;;;;;4906834;29;20483;-87
2022/03/05 09:24:34;;;;;;;17.93;15.80;;;14.60;44.20;;;;;;4925088;29;21016;-91
2022/03/05 09:27:26;;;;;;;18.30;15.90;;;14.30;43.30;;;;;;4932467;29;20493;-90
2022/03/05 09:32:48;;;;;;;18.70;16.77;;;15.20;42.60;;;;;;4933914;29;20443;-90
2022/03/05 09:35:23;;;;;;;18.93;16.97;;;15.80;41.40;;;;;;4911442;29;20534;-91
2022/03/05 09:37:55;;;;;;;17.20;15.50;;;16.50;40.30;;;;;;4902258;29;20977;-90
2022/03/05 09:43:32;;;;;;;18.40;16.40;;;16.60;38.20;;;;;;4930654;29;20829;-92
2022/03/05 09:46:22;;;;;;;17.33;15.63;;;16.90;37.90;;;;;;4923633;29;20553;-92
2022/03/05 09:49:31;;;;;;;16.90;15.20;;;15.30;38.50;;;;;;4928000;29;20454;-92
2022/03/05 09:52:04;;;;;;;17.80;15.30;;;15.10;40.40;;;;;;4926230;29;20523;-89
2022/03/05 09:54:35;;;;;;;17.80;14.40;;;14.60;39.70;;;;;;4940032;29;20448;-89
2022/03/05 09:57:03;;;;;;;18.63;15.47;;;14.60;40.00;;;;;;4920111;29;20472;-88
2022/03/05 09:59:29;;;;;;;16.30;14.67;;;15.40;39.10;;;;;;4917676;29;20466;-87
2022/03/05 10:01:56;;;;;;;17.33;15.53;;;14.80;39.70;;;;;;4917408;29;20476;-87
2022/03/05 10:04:29;;;;;;;19.10;16.87;;;16.50;39.60;;;;;;4961276;23;20497;-92
2022/03/05 10:07:12;;;;;;;18.47;16.60;;;16.80;37.60;;;;;;4935444;29;20488;-92
2022/03/05 10:10:10;;;;;;;17.07;15.27;;;16.30;37.00;;;;;;4923411;29;20484;-93
2022/03/05 10:12:39;;;;;;;16.43;14.73;;;15.40;38.40;;;;;;4921744;29;20541;-91
2022/03/05 10:15:09;;;;;;;16.90;14.97;;;17.40;37.20;;;;;;4907992;29;20462;-90
2022/03/05 10:17:50;;;;;;;17.77;15.87;;;18.10;36.90;;;;;;4910038;29;20459;-89
2022/03/05 10:20:18;;;;;;;18.00;16.30;;;19.80;34.20;;;;;;4911645;29;20477;-85
2022/03/05 10:22:59;;;;;;;16.80;15.20;;;18.70;34.50;;;;;;4907804;29;20479;-81
2022/03/05 10:25:30;;;;;;;18.50;16.63;;;16.40;35.10;;;;;;4908294;29;20458;-81
2022/03/05 10:28:04;;;;;;;15.83;14.23;;;15.90;36.40;;;;;;4924101;29;20447;-81
2022/03/05 10:30:32;;;;;;;17.83;14.63;;;14.90;37.40;;;;;;4911563;29;20460;-87
2022/03/05 10:32:59;;;;;;;15.80;14.20;;;13.20;37.90;;;;;;4921784;29;20435;-89
2022/03/05 10:35:26;;;;;;;15.30;13.37;;;11.70;40.90;;;;;;4926445;29;20492;-89
2022/03/05 10:38:25;;;;;;;17.73;12.63;;;11.70;41.30;;;;;;4942946;29;20466;-88
2022/03/05 10:40:56;;;;;;;14.93;11.53;;;11.90;41.20;;;;;;4921753;29;20448;-88
2022/03/05 10:43:25;;;;;;;16.83;13.50;;;11.40;41.50;;;;;;4904962;29;20483;-88
2022/03/05 10:45:54;;;;;;;15.27;12.63;;;11.10;41.90;;;;;;4909115;29;20477;-88
2022/03/05 10:48:23;;;;;;;13.03;11.13;;;10.90;42.30;;;;;;4902927;29;20447;-88
2022/03/05 10:50:55;;;;;;;16.90;12.43;;;9.90;44.40;;;;;;4902871;29;20882;-87
2022/03/05 10:53:36;;;;;;;15.53;13.63;;;10.60;44.50;;;;;;4916377;29;20948;-88
2022/03/05 10:56:23;;;;;;;14.90;12.37;;;11.60;42.80;;;;;;4924269;29;20474;-88
2022/03/05 10:59:16;;;;;;;15.07;12.20;;;13.20;40.40;;;;;;4919745;29;20901;-87
2022/03/05 11:01:45;;;;;;;13.63;11.30;;;12.30;39.60;;;;;;4918325;29;20488;-87
2022/03/05 11:04:18;;;;;;;13.67;11.97;;;12.90;40.30;;;;;;4930304;29;20549;-87
2022/03/05 11:06:45;;;;;;;14.87;11.93;;;12.70;39.90;;;;;;4933061;29;20462;-87
2022/03/05 11:09:14;;;;;;;13.07;11.80;;;14.20;38.50;;;;;;4926708;29;20484;-88
2022/03/05 11:11:43;;;;;;;13.30;11.10;;;14.20;37.20;;;;;;4923007;29;20451;-88
2022/03/05 11:14:15;;;;;;;13.60;11.80;;;15.00;36.70;;;;;;4941204;29;20462;-87
2022/03/05 11:16:43;;;;;;;12.50;11.30;;;15.80;36.10;;;;;;4952979;28;20458;-87
2022/03/05 11:19:11;;;;;;;14.40;12.90;;;16.20;34.90;;;;;;4946349;29;20463;-87
2022/03/05 11:21:39;;;;;;;13.93;12.27;;;16.50;34.30;;;;;;4957324;29;20426;-88
2022/03/05 11:24:12;;;;;;;13.53;12.13;;;17.00;32.60;;;;;;4949529;28;20455;-88
2022/03/05 11:26:39;;;;;;;12.30;11.00;;;15.90;33.10;;;;;;4931411;29;20479;-88
2022/03/05 11:29:10;;;;;;;12.53;10.50;;;15.70;33.90;;;;;;4922301;29;20488;-88
2022/03/05 11:31:39;;;;;;;14.10;12.53;;;15.10;33.40;;;;;;4928823;29;20979;-88
2022/03/05 11:34:13;;;;;;;13.10;11.80;;;13.60;34.70;;;;;;4918485;29;20449;-88
2022/03/05 11:36:40;;;;;;;14.07;12.60;;;14.20;35.50;;;;;;4940660;29;20585;-88
2022/03/05 11:39:10;;;;;;;13.47;11.83;;;14.00;35.20;;;;;;4928154;29;20828;-88
2022/03/05 11:41:56;;;;;;;11.87;10.57;;;13.30;35.60;;;;;;4924771;29;21084;-88
2022/03/05 11:44:26;;;;;;;14.03;11.10;;;14.20;35.80;;;;;;4921044;29;20456;-87
2022/03/05 11:47:26;;;;;;;12.17;10.13;;;14.80;34.50;;;;;;4948303;28;20530;-87
2022/03/05 11:50:15;;;;;;;11.70;10.30;;;15.00;33.50;;;;;;4844158;29;20465;-87
2022/03/05 11:53:03;;;;;;;12.37;11.07;;;16.00;33.70;;;;;;4932013;29;20435;-88
2022/03/05 11:55:35;;;;;;;12.00;10.67;;;17.50;32.00;;;;;;4920860;29;20438;-89
2022/03/05 11:58:27;;;;;;;12.40;11.20;;;19.10;30.40;;;;;;4922072;29;20448;-87
2022/03/05 12:00:57;;;;;;;11.60;8.87;;;20.40;29.00;;;;;;4925528;29;20446;-87
2022/03/05 12:03:42;;;;;;;10.70;9.70;;;18.50;28.60;;;;;;4923637;29;20483;-88
2022/03/05 12:06:17;;;;;;;11.60;10.50;;;17.50;30.00;;;;;;4923832;29;20851;-88
2022/03/05 12:08:53;;;;;;;11.97;10.77;;;18.10;29.90;;;;;;4936433;29;20500;-88
2022/03/05 12:11:23;;;;;;;14.10;12.60;;;18.30;28.90;;;;;;4936571;28;20496;-87
2022/03/05 12:14:00;;;;;;;10.50;9.40;;;18.00;29.00;;;;;;4924916;29;20435;-87
2022/03/05 12:16:28;;;;;;;10.97;9.77;;;18.50;29.00;;;;;;4922657;29;20475;-88
2022/03/05 12:45:48;;;;;;;9.60;8.70;;;20.30;27.10;;;;;;1088147;23;20786;-87
2022/03/05 12:48:27;;;;;;;11.32;10.23;;;21.10;25.70;;;;;;4952046;28;20459;-90
2022/03/05 12:51:15;;;;;;;11.53;9.63;;;17.90;27.00;;;;;;4942687;28;20208;-90
2022/03/05 12:53:47;;;;;;;9.77;8.77;;;16.10;28.40;;;;;;4936650;29;20450;-89
2022/03/05 12:56:38;;;;;;;9.70;8.70;;;15.60;29.90;;;;;;4947948;29;20481;-91
2022/03/05 13:02:25;;;;;;;10.27;8.50;;;15.30;30.60;;;;;;4939494;29;20963;-91
2022/03/05 13:04:55;;;;;;;10.07;9.07;;;16.10;29.20;;;;;;4955311;29;20465;-91
2022/03/05 13:07:50;;;;;;;13.30;9.37;;;15.30;29.60;;;;;;4955550;28;20459;-89
2022/03/05 13:13:38;;;;;;;8.83;7.93;;;15.40;29.90;;;;;;4936990;29;20936;-91
2022/03/05 13:16:21;;;;;;;;;;;;;;;;;;;;;
2022/03/05 13:19:03;;;;;;;9.53;8.63;;;14.30;31.00;;;;;;4942295;29;20519;-92
2022/03/05 13:21:43;;;;;;;10.90;9.73;;;15.00;31.00;;;;;;4938630;29;20450;-91
2022/03/05 13:24:17;;;;;;;12.60;9.13;;;15.20;30.20;;;;;;4938264;29;20498;-91
2022/03/05 13:26:52;;;;;;;9.60;8.43;;;14.80;30.50;;;;;;4939031;28;20459;-92
2022/03/05 13:29:30;;;;;;;10.53;9.53;;;15.80;30.60;;;;;;4948647;29;20510;-90
2022/03/05 13:32:02;;;;;;;11.00;9.30;;;16.80;29.50;;;;;;4971660;28;20499;-91
2022/03/05 13:34:30;;;;;;;9.70;8.70;;;17.60;28.90;;;;;;4974910;28;20441;-90
2022/03/05 13:37:07;;;;;;;11.10;9.97;;;16.60;28.80;;;;;;4947490;29;20519;-89
2022/03/05 13:39:35;;;;;;;10.80;9.70;;;15.70;30.20;;;;;;4963426;28;20430;-89
2022/03/05 13:42:10;;;;;;;11.03;9.50;;;14.40;30.80;;;;;;4966966;28;20458;-88
2022/03/05 13:44:39;;;;;;;11.50;10.30;;;13.00;32.30;;;;;;4964240;29;20424;-89
2022/03/05 13:47:13;;;;;;;10.67;9.57;;;13.40;33.50;;;;;;4937269;29;20476;-89
2022/03/05 13:49:42;;;;;;;10.97;9.83;;;14.50;32.10;;;;;;4944911;29;20567;-90
2022/03/05 13:52:17;;;;;;;11.60;9.73;;;15.60;31.30;;;;;;4942017;29;20517;-90
2022/03/05 13:54:48;;;;;;;10.97;9.53;;;16.00;30.50;;;;;;4945345;29;20458;-89
2022/03/05 13:57:28;;;;;;;11.67;10.30;;;15.80;30.10;;;;;;4934795;29;20480;-89